PWSweather.com
Personal Weather Stations
Station Observations
KRMIDAS
Braemar, Lake Zurich, IL 60047

BraemarLake Zurich, IL 60047

Lat: 42.178, Lon: -88.102

Elevation: 837

Station Type: Davis Vantage Pro 2

http://tomkeramidas.com/cumulus/index.htm

Latest ConditionsUpdated 11:00:01 PM CDT Monday, Sep 1, 2014
Currently Today's Max Today's Min Today's Average
Temperature 67.4°F19.7°C 81.7°F27.6°C 67.2°F19.6°C 74.4°F23.6°C
Dew Point 66.2°F19.0°C 72.9°F22.7°C 65.8°F18.8°C 69.4°F20.8°C
Winds 1.0 mph SW1.6 kmh SW 8.0 mph SW12.9 kmh SW - 4.1 mph 6.6 kmh
Wind Gusts 6.0 mph9.7 kmh 24.0 mph38.6 kmh - -
Humidity 96% 96% 64% 85%
Pressure 29.83 in1010.2 mb 29.85 in1010.8 mb 29.69 in1005.4 mb -
Precipitation - 0.31 in7.9 mm - -
Hour Temp Dew Point Humidity Winds Wind Gusts Pressure Precip Precip Rate Daily Precip Total
11:00 PM 67.4°F19.7°C 66.2°F19.0°C 96% 1.0 mph SW1.6 kmh SW 6.0 mph9.7 kmh 29.83 in1010.2 mb 0.00 in0.0 mm 0.00 in/hr0.0 mm/hr 0.31 in7.9 mm
10:45 PM 67.2°F19.6°C 66.0°F18.9°C 96% Calm Calm 5.0 mph8.0 kmh 29.83 in1010.2 mb 0.00 in0.0 mm 0.00 in/hr0.0 mm/hr 0.31 in7.9 mm
10:30 PM 67.3°F19.6°C 65.8°F18.8°C 95% Calm Calm 3.0 mph4.8 kmh 29.82 in1009.8 mb 0.00 in0.0 mm 0.00 in/hr0.0 mm/hr 0.31 in7.9 mm
10:15 PM 67.5°F19.7°C 66.0°F18.9°C 95% Calm Calm 5.0 mph8.0 kmh 29.82 in1009.8 mb 0.00 in0.0 mm 0.00 in/hr0.0 mm/hr 0.31 in7.9 mm
10:00 PM 67.7°F19.8°C 66.2°F19.0°C 95% Calm Calm 3.0 mph4.8 kmh 29.80 in1009.1 mb 0.00 in0.0 mm 0.00 in/hr0.0 mm/hr 0.31 in7.9 mm
09:45 PM 67.9°F19.9°C 66.4°F19.1°C 95% Calm Calm -- 29.81 in1009.5 mb 0.01 in0.3 mm 0.00 in/hr0.0 mm/hr 0.31 in7.9 mm
09:30 PM 68.1°F20.1°C 66.3°F19.1°C 94% Calm Calm -- 29.81 in1009.5 mb 0.03 in0.8 mm 0.00 in/hr0.0 mm/hr 0.31 in7.9 mm
09:15 PM 68.3°F20.2°C 66.2°F19.0°C 93% Calm Calm 3.0 mph4.8 kmh 29.80 in1009.1 mb 0.12 in3.0 mm 0.00 in/hr0.0 mm/hr 0.31 in7.9 mm
09:00 PM 68.5°F20.3°C 66.4°F19.1°C 93% 1.0 mph SW1.6 kmh SW 4.0 mph6.4 kmh 29.80 in1009.1 mb 0.14 in3.6 mm 0.01 in/hr0.3 mm/hr 0.31 in7.9 mm
08:45 PM 69.0°F20.6°C 66.3°F19.1°C 91% Calm Calm 5.0 mph8.0 kmh 29.81 in1009.5 mb 0.13 in3.3 mm 0.08 in/hr2.0 mm/hr 0.30 in7.6 mm
08:30 PM 70.2°F21.2°C 66.5°F19.2°C 88% Calm Calm 3.0 mph4.8 kmh 29.80 in1009.1 mb 0.11 in2.8 mm 0.36 in/hr9.1 mm/hr 0.28 in7.1 mm
08:15 PM 72.0°F22.2°C 66.9°F19.4°C 84% 7.0 mph NW11.3 kmh NW 13.0 mph20.9 kmh 29.80 in1009.1 mb 0.02 in0.5 mm 0.08 in/hr2.0 mm/hr 0.19 in4.8 mm
08:00 PM 74.7°F23.7°C 67.4°F19.7°C 78% 3.0 mph SW4.8 kmh SW 9.0 mph14.5 kmh 29.79 in1008.8 mb 0.00 in0.0 mm 0.00 in/hr0.0 mm/hr 0.17 in4.3 mm
07:45 PM 74.9°F23.8°C 66.8°F19.3°C 76% 5.0 mph SW8.0 kmh SW 13.0 mph20.9 kmh 29.78 in1008.5 mb 0.00 in0.0 mm 0.00 in/hr0.0 mm/hr 0.17 in4.3 mm
07:30 PM 75.4°F24.1°C 67.3°F19.6°C 76% 5.0 mph SW8.0 kmh SW 12.0 mph19.3 kmh 29.77 in1008.1 mb 0.00 in0.0 mm 0.00 in/hr0.0 mm/hr 0.17 in4.3 mm
07:15 PM 75.8°F24.3°C 67.3°F19.6°C 75% 7.0 mph SSW11.3 kmh SSW 21.0 mph33.8 kmh 29.75 in1007.5 mb 0.00 in0.0 mm 0.00 in/hr0.0 mm/hr 0.17 in4.3 mm
07:00 PM 76.3°F24.6°C 67.4°F19.7°C 74% 6.0 mph SW9.7 kmh SW 16.0 mph25.7 kmh 29.77 in1008.1 mb 0.00 in0.0 mm 0.00 in/hr0.0 mm/hr 0.17 in4.3 mm
06:45 PM 76.6°F24.8°C 67.3°F19.6°C 73% 5.0 mph SW8.0 kmh SW 14.0 mph22.5 kmh 29.77 in1008.1 mb 0.00 in0.0 mm 0.00 in/hr0.0 mm/hr 0.17 in4.3 mm
06:30 PM 77.1°F25.1°C 67.0°F19.4°C 71% 6.0 mph SW9.7 kmh SW 14.0 mph22.5 kmh 29.76 in1007.8 mb 0.00 in0.0 mm 0.00 in/hr0.0 mm/hr 0.17 in4.3 mm
06:15 PM 77.6°F25.3°C 67.0°F19.4°C 70% 6.0 mph SW9.7 kmh SW 17.0 mph27.4 kmh 29.76 in1007.8 mb 0.00 in0.0 mm 0.00 in/hr0.0 mm/hr 0.17 in4.3 mm
06:00 PM 78.1°F25.6°C 67.5°F19.7°C 70% 6.0 mph SW9.7 kmh SW 16.0 mph25.7 kmh 29.75 in1007.5 mb 0.00 in0.0 mm 0.00 in/hr0.0 mm/hr 0.17 in4.3 mm
05:45 PM 78.5°F25.8°C 67.5°F19.7°C 69% 6.0 mph SW9.7 kmh SW 16.0 mph25.7 kmh 29.75 in1007.5 mb 0.00 in0.0 mm 0.00 in/hr0.0 mm/hr 0.17 in4.3 mm
05:30 PM 78.9°F26.1°C 68.3°F20.2°C 70% 8.0 mph SW12.9 kmh SW 21.0 mph33.8 kmh 29.75 in1007.5 mb 0.00 in0.0 mm 0.00 in/hr0.0 mm/hr 0.17 in4.3 mm
05:15 PM 79.4°F26.3°C 67.9°F19.9°C 68% 7.0 mph SW11.3 kmh SW 18.0 mph29.0 kmh 29.74 in1007.1 mb 0.00 in0.0 mm 0.00 in/hr0.0 mm/hr 0.17 in4.3 mm
05:00 PM 79.4°F26.3°C 68.3°F20.2°C 69% 7.0 mph SW11.3 kmh SW 19.0 mph30.6 kmh 29.74 in1007.1 mb 0.00 in0.0 mm 0.00 in/hr0.0 mm/hr 0.17 in4.3 mm
04:45 PM 79.4°F26.3°C 67.9°F19.9°C 68% 8.0 mph SW12.9 kmh SW 18.0 mph29.0 kmh 29.74 in1007.1 mb 0.00 in0.0 mm 0.00 in/hr0.0 mm/hr 0.17 in4.3 mm
04:30 PM 80.1°F26.7°C 68.6°F20.3°C 68% 6.0 mph SW9.7 kmh SW 17.0 mph27.4 kmh 29.74 in1007.1 mb 0.00 in0.0 mm 0.00 in/hr0.0 mm/hr 0.17 in4.3 mm
04:15 PM 80.6°F27.0°C 68.6°F20.3°C 67% 7.0 mph SW11.3 kmh SW 15.0 mph24.1 kmh 29.74 in1007.1 mb 0.00 in0.0 mm 0.00 in/hr0.0 mm/hr 0.17 in4.3 mm
04:00 PM 80.9°F27.2°C 67.6°F19.8°C 64% 7.0 mph SW11.3 kmh SW 17.0 mph27.4 kmh 29.73 in1006.8 mb 0.00 in0.0 mm 0.00 in/hr0.0 mm/hr 0.17 in4.3 mm
03:45 PM 81.6°F27.6°C 68.7°F20.4°C 65% 8.0 mph SW12.9 kmh SW 20.0 mph32.2 kmh 29.74 in1007.1 mb 0.00 in0.0 mm 0.00 in/hr0.0 mm/hr 0.17 in4.3 mm
03:30 PM 81.3°F27.4°C 68.4°F20.2°C 65% 7.0 mph SW11.3 kmh SW 18.0 mph29.0 kmh 29.73 in1006.8 mb 0.00 in0.0 mm 0.00 in/hr0.0 mm/hr 0.17 in4.3 mm
03:15 PM 81.7°F27.6°C 68.3°F20.2°C 64% 8.0 mph SW12.9 kmh SW 21.0 mph33.8 kmh 29.74 in1007.1 mb 0.00 in0.0 mm 0.00 in/hr0.0 mm/hr 0.17 in4.3 mm
03:00 PM 81.6°F27.6°C 69.6°F20.9°C 67% 8.0 mph SW12.9 kmh SW 18.0 mph29.0 kmh 29.74 in1007.1 mb 0.00 in0.0 mm 0.00 in/hr0.0 mm/hr 0.17 in4.3 mm
02:45 PM 80.4°F26.9°C 69.7°F20.9°C 70% 6.0 mph SW9.7 kmh SW 16.0 mph25.7 kmh 29.74 in1007.1 mb 0.00 in0.0 mm 0.00 in/hr0.0 mm/hr 0.17 in4.3 mm
02:30 PM 80.5°F26.9°C 69.4°F20.8°C 69% 7.0 mph SW11.3 kmh SW 18.0 mph29.0 kmh 29.74 in1007.1 mb 0.00 in0.0 mm 0.00 in/hr0.0 mm/hr 0.17 in4.3 mm
02:15 PM 80.6°F27.0°C 69.5°F20.8°C 69% 7.0 mph SW11.3 kmh SW 16.0 mph25.7 kmh 29.73 in1006.8 mb 0.00 in0.0 mm 0.00 in/hr0.0 mm/hr 0.17 in4.3 mm
02:00 PM 80.6°F27.0°C 69.9°F21.1°C 70% 6.0 mph SW9.7 kmh SW 16.0 mph25.7 kmh 29.74 in1007.1 mb 0.00 in0.0 mm 0.00 in/hr0.0 mm/hr 0.17 in4.3 mm
01:45 PM 80.9°F27.2°C 71.4°F21.9°C 73% 5.0 mph SW8.0 kmh SW 14.0 mph22.5 kmh 29.74 in1007.1 mb 0.00 in0.0 mm 0.00 in/hr0.0 mm/hr 0.17 in4.3 mm
01:30 PM 80.7°F27.1°C 70.0°F21.1°C 70% 7.0 mph SW11.3 kmh SW 14.0 mph22.5 kmh 29.74 in1007.1 mb 0.00 in0.0 mm 0.00 in/hr0.0 mm/hr 0.17 in4.3 mm
01:15 PM 80.3°F26.8°C 72.0°F22.2°C 76% 6.0 mph SW9.7 kmh SW 15.0 mph24.1 kmh 29.74 in1007.1 mb 0.00 in0.0 mm 0.00 in/hr0.0 mm/hr 0.17 in4.3 mm
01:00 PM 79.1°F26.2°C 71.6°F22.0°C 78% 3.0 mph SW4.8 kmh SW 13.0 mph20.9 kmh 29.74 in1007.1 mb 0.00 in0.0 mm 0.00 in/hr0.0 mm/hr 0.17 in4.3 mm
12:45 PM 77.2°F25.1°C 71.3°F21.8°C 82% 5.0 mph SW8.0 kmh SW 13.0 mph20.9 kmh 29.74 in1007.1 mb 0.00 in0.0 mm 0.00 in/hr0.0 mm/hr 0.17 in4.3 mm
12:30 PM 76.5°F24.7°C 72.0°F22.2°C 86% 5.0 mph SW8.0 kmh SW 15.0 mph24.1 kmh 29.75 in1007.5 mb 0.00 in0.0 mm 0.00 in/hr0.0 mm/hr 0.17 in4.3 mm
12:15 PM 75.7°F24.3°C 72.6°F22.6°C 90% 4.0 mph WSW6.4 kmh WSW 11.0 mph17.7 kmh 29.75 in1007.5 mb 0.00 in0.0 mm 0.00 in/hr0.0 mm/hr 0.17 in4.3 mm
12:00 PM 75.1°F23.9°C 72.3°F22.4°C 91% 4.0 mph SW6.4 kmh SW 11.0 mph17.7 kmh 29.75 in1007.5 mb 0.00 in0.0 mm 0.00 in/hr0.0 mm/hr 0.17 in4.3 mm
11:45 AM 74.8°F23.8°C 72.3°F22.4°C 92% 4.0 mph SW6.4 kmh SW 16.0 mph25.7 kmh 29.74 in1007.1 mb 0.00 in0.0 mm 0.00 in/hr0.0 mm/hr 0.17 in4.3 mm
11:30 AM 74.1°F23.4°C 72.9°F22.7°C 96% 3.0 mph SSW4.8 kmh SSW 11.0 mph17.7 kmh 29.74 in1007.1 mb 0.00 in0.0 mm 0.00 in/hr0.0 mm/hr 0.17 in4.3 mm
11:00 AM 72.4°F22.4°C 71.2°F21.8°C 96% 3.0 mph SW4.8 kmh SW 15.0 mph24.1 kmh 29.75 in1007.5 mb 0.11 in2.8 mm 0.00 in/hr0.0 mm/hr 0.17 in4.3 mm
10:45 AM 72.4°F22.4°C 70.9°F21.6°C 95% 3.0 mph SW4.8 kmh SW 14.0 mph22.5 kmh 29.75 in1007.5 mb 0.17 in4.3 mm 0.20 in/hr5.1 mm/hr 0.17 in4.3 mm
10:30 AM 73.0°F22.8°C 71.2°F21.8°C 94% 2.0 mph SW3.2 kmh SW 13.0 mph20.9 kmh 29.75 in1007.5 mb 0.12 in3.0 mm 0.16 in/hr4.1 mm/hr 0.12 in3.0 mm
10:15 AM 73.5°F23.1°C 71.4°F21.9°C 93% 3.0 mph SW4.8 kmh SW 11.0 mph17.7 kmh 29.75 in1007.5 mb 0.08 in2.0 mm 0.12 in/hr3.0 mm/hr 0.08 in2.0 mm
10:00 AM 74.2°F23.4°C 71.4°F21.9°C 91% 5.0 mph SSW8.0 kmh SSW 15.0 mph24.1 kmh 29.74 in1007.1 mb 0.05 in1.3 mm 0.07 in/hr1.8 mm/hr 0.05 in1.3 mm
09:45 AM 74.8°F23.8°C 71.3°F21.8°C 89% 7.0 mph SW11.3 kmh SW 16.0 mph25.7 kmh 29.74 in1007.1 mb 0.00 in0.0 mm 0.00 in/hr0.0 mm/hr 0.00 in0.0 mm
09:30 AM 75.1°F23.9°C 71.6°F22.0°C 89% 6.0 mph S9.7 kmh S 18.0 mph29.0 kmh 29.71 in1006.1 mb 0.00 in0.0 mm 0.00 in/hr0.0 mm/hr 0.00 in0.0 mm
09:15 AM 74.9°F23.8°C 71.1°F21.7°C 88% 7.0 mph S11.3 kmh S 20.0 mph32.2 kmh 29.70 in1005.8 mb 0.00 in0.0 mm 0.00 in/hr0.0 mm/hr 0.00 in0.0 mm
09:00 AM 74.7°F23.7°C 71.2°F21.8°C 89% 8.0 mph S12.9 kmh S 24.0 mph38.6 kmh 29.69 in1005.4 mb 0.00 in0.0 mm 0.00 in/hr0.0 mm/hr 0.00 in0.0 mm
08:45 AM 73.8°F23.2°C 70.7°F21.5°C 90% 7.0 mph S11.3 kmh S 19.0 mph30.6 kmh 29.70 in1005.8 mb 0.00 in0.0 mm 0.00 in/hr0.0 mm/hr 0.00 in0.0 mm
08:30 AM 73.5°F23.1°C 70.7°F21.5°C 91% 7.0 mph S11.3 kmh S 20.0 mph32.2 kmh 29.69 in1005.4 mb 0.00 in0.0 mm 0.00 in/hr0.0 mm/hr 0.00 in0.0 mm
08:15 AM 73.6°F23.1°C 70.8°F21.6°C 91% 6.0 mph S9.7 kmh S 19.0 mph30.6 kmh 29.70 in1005.8 mb 0.00 in0.0 mm 0.00 in/hr0.0 mm/hr 0.00 in0.0 mm
08:00 AM 73.4°F23.0°C 70.9°F21.6°C 92% 6.0 mph S9.7 kmh S 20.0 mph32.2 kmh 29.69 in1005.4 mb 0.00 in0.0 mm 0.00 in/hr0.0 mm/hr 0.00 in0.0 mm
07:45 AM 73.1°F22.8°C 70.6°F21.4°C 92% 6.0 mph SSE9.7 kmh SSE 19.0 mph30.6 kmh 29.70 in1005.8 mb 0.00 in0.0 mm 0.00 in/hr0.0 mm/hr 0.00 in0.0 mm
07:30 AM 73.0°F22.8°C 70.9°F21.6°C 93% 4.0 mph SSE6.4 kmh SSE 13.0 mph20.9 kmh 29.71 in1006.1 mb 0.00 in0.0 mm 0.00 in/hr0.0 mm/hr 0.00 in0.0 mm
07:15 AM 72.8°F22.7°C 70.7°F21.5°C 93% 4.0 mph SSE6.4 kmh SSE 11.0 mph17.7 kmh 29.71 in1006.1 mb 0.00 in0.0 mm 0.00 in/hr0.0 mm/hr 0.00 in0.0 mm
07:00 AM 72.3°F22.4°C 70.5°F21.4°C 94% 4.0 mph SSE6.4 kmh SSE 12.0 mph19.3 kmh 29.72 in1006.4 mb 0.00 in0.0 mm 0.00 in/hr0.0 mm/hr 0.00 in0.0 mm
06:45 AM 72.2°F22.3°C 70.4°F21.3°C 94% 3.0 mph SE4.8 kmh SE 9.0 mph14.5 kmh 29.72 in1006.4 mb 0.00 in0.0 mm 0.00 in/hr0.0 mm/hr 0.00 in0.0 mm
06:30 AM 72.4°F22.4°C 70.3°F21.3°C 93% 1.0 mph SSE1.6 kmh SSE 7.0 mph11.3 kmh 29.72 in1006.4 mb 0.00 in0.0 mm 0.00 in/hr0.0 mm/hr 0.00 in0.0 mm
06:15 AM 72.5°F22.5°C 70.4°F21.3°C 93% 1.0 mph S1.6 kmh S 11.0 mph17.7 kmh 29.74 in1007.1 mb 0.00 in0.0 mm 0.00 in/hr0.0 mm/hr 0.00 in0.0 mm
06:00 AM 72.6°F22.6°C 70.5°F21.4°C 93% 4.0 mph S6.4 kmh S 11.0 mph17.7 kmh 29.76 in1007.8 mb 0.00 in0.0 mm 0.00 in/hr0.0 mm/hr 0.00 in0.0 mm
05:45 AM 72.5°F22.5°C 70.7°F21.5°C 94% 4.0 mph S6.4 kmh S 15.0 mph24.1 kmh 29.75 in1007.5 mb 0.00 in0.0 mm 0.00 in/hr0.0 mm/hr 0.00 in0.0 mm
05:30 AM 72.2°F22.3°C 70.4°F21.3°C 94% 2.0 mph S3.2 kmh S 10.0 mph16.1 kmh 29.76 in1007.8 mb 0.00 in0.0 mm 0.00 in/hr0.0 mm/hr 0.00 in0.0 mm
05:15 AM 71.6°F22.0°C 70.1°F21.2°C 95% 1.0 mph S1.6 kmh S 7.0 mph11.3 kmh 29.77 in1008.1 mb 0.00 in0.0 mm 0.00 in/hr0.0 mm/hr 0.00 in0.0 mm
05:00 AM 71.3°F21.8°C 69.8°F21.0°C 95% 1.0 mph SSE1.6 kmh SSE 6.0 mph9.7 kmh 29.77 in1008.1 mb 0.00 in0.0 mm 0.00 in/hr0.0 mm/hr 0.00 in0.0 mm
04:45 AM 71.2°F21.8°C 69.7°F20.9°C 95% 1.0 mph SSE1.6 kmh SSE 5.0 mph8.0 kmh 29.77 in1008.1 mb 0.00 in0.0 mm 0.00 in/hr0.0 mm/hr 0.00 in0.0 mm
04:30 AM 71.3°F21.8°C 69.8°F21.0°C 95% 3.0 mph SSE4.8 kmh SSE 7.0 mph11.3 kmh 29.77 in1008.1 mb 0.00 in0.0 mm 0.00 in/hr0.0 mm/hr 0.00 in0.0 mm
04:15 AM 71.4°F21.9°C 69.6°F20.9°C 94% 2.0 mph SSE3.2 kmh SSE 7.0 mph11.3 kmh 29.77 in1008.1 mb 0.00 in0.0 mm 0.00 in/hr0.0 mm/hr 0.00 in0.0 mm
04:00 AM 71.6°F22.0°C 69.8°F21.0°C 94% 2.0 mph S3.2 kmh S 7.0 mph11.3 kmh 29.78 in1008.5 mb 0.00 in0.0 mm 0.00 in/hr0.0 mm/hr 0.00 in0.0 mm
03:45 AM 71.9°F22.2°C 70.1°F21.2°C 94% 2.0 mph S3.2 kmh S 10.0 mph16.1 kmh 29.80 in1009.1 mb 0.00 in0.0 mm 0.00 in/hr0.0 mm/hr 0.00 in0.0 mm
03:30 AM 72.1°F22.3°C 70.3°F21.3°C 94% 3.0 mph S4.8 kmh S 11.0 mph17.7 kmh 29.80 in1009.1 mb 0.00 in0.0 mm 0.00 in/hr0.0 mm/hr 0.00 in0.0 mm
03:15 AM 72.2°F22.3°C 70.1°F21.2°C 93% 1.0 mph S1.6 kmh S 12.0 mph19.3 kmh 29.82 in1009.8 mb 0.00 in0.0 mm 0.00 in/hr0.0 mm/hr 0.00 in0.0 mm
03:00 AM 72.5°F22.5°C 70.0°F21.1°C 92% 2.0 mph S3.2 kmh S 12.0 mph19.3 kmh 29.81 in1009.5 mb 0.00 in0.0 mm 0.00 in/hr0.0 mm/hr 0.00 in0.0 mm
02:45 AM 72.6°F22.6°C 70.1°F21.2°C 92% 3.0 mph S4.8 kmh S 10.0 mph16.1 kmh 29.80 in1009.1 mb 0.00 in0.0 mm 0.00 in/hr0.0 mm/hr 0.00 in0.0 mm
02:30 AM 72.7°F22.6°C 70.2°F21.2°C 92% 4.0 mph S6.4 kmh S 9.0 mph14.5 kmh 29.80 in1009.1 mb 0.00 in0.0 mm 0.00 in/hr0.0 mm/hr 0.00 in0.0 mm
02:15 AM 72.8°F22.7°C 70.3°F21.3°C 92% 3.0 mph S4.8 kmh S 10.0 mph16.1 kmh 29.82 in1009.8 mb 0.00 in0.0 mm 0.00 in/hr0.0 mm/hr 0.00 in0.0 mm
02:00 AM 73.0°F22.8°C 70.2°F21.2°C 91% 4.0 mph S6.4 kmh S 14.0 mph22.5 kmh 29.82 in1009.8 mb 0.00 in0.0 mm 0.00 in/hr0.0 mm/hr 0.00 in0.0 mm
01:45 AM 73.1°F22.8°C 70.3°F21.3°C 91% 3.0 mph S4.8 kmh S 10.0 mph16.1 kmh 29.82 in1009.8 mb 0.00 in0.0 mm 0.00 in/hr0.0 mm/hr 0.00 in0.0 mm
01:30 AM 73.1°F22.8°C 70.3°F21.3°C 91% 4.0 mph S6.4 kmh S 11.0 mph17.7 kmh 29.81 in1009.5 mb 0.00 in0.0 mm 0.00 in/hr0.0 mm/hr 0.00 in0.0 mm
01:15 AM 73.0°F22.8°C 70.2°F21.2°C 91% 3.0 mph SSE4.8 kmh SSE 14.0 mph22.5 kmh 29.82 in1009.8 mb 0.00 in0.0 mm 0.00 in/hr0.0 mm/hr 0.00 in0.0 mm
01:00 AM 73.0°F22.8°C 70.2°F21.2°C 91% 5.0 mph S8.0 kmh S 13.0 mph20.9 kmh 29.83 in1010.2 mb 0.00 in0.0 mm 0.00 in/hr0.0 mm/hr 0.00 in0.0 mm
12:45 AM 72.9°F22.7°C 70.1°F21.2°C 91% 4.0 mph SSE6.4 kmh SSE 10.0 mph16.1 kmh 29.84 in1010.5 mb 0.00 in0.0 mm 0.00 in/hr0.0 mm/hr 0.00 in0.0 mm
12:30 AM 72.6°F22.6°C 70.1°F21.2°C 92% 3.0 mph SSE4.8 kmh SSE 9.0 mph14.5 kmh 29.85 in1010.8 mb 0.00 in0.0 mm 0.00 in/hr0.0 mm/hr 0.00 in0.0 mm
12:15 AM 72.6°F22.6°C 70.1°F21.2°C 92% 3.0 mph SSE4.8 kmh SSE 10.0 mph16.1 kmh 29.85 in1010.8 mb 0.00 in0.0 mm 0.00 in/hr0.0 mm/hr 0.00 in0.0 mm
12:00 AM 72.4°F22.4°C 69.9°F21.1°C 92% 1.0 mph SSE1.6 kmh SSE 6.0 mph9.7 kmh 29.84 in1010.5 mb 0.00 in0.0 mm 0.00 in/hr0.0 mm/hr 0.00 in0.0 mm